Time;durP1;ratioP1;P1;durP2;ratioP2;P2;SDS_P1;SDS_P2;PMS_P1;PMS_P2;Temp;Humidity;BMP_temperature;BMP_pressure;BME280_temperature;BME280_humidity;BME280_pressure;Samples;Min_cycle;Max_cycle;Signal;HPM_P1;HPM_P2
2022/10/03 00:00:17;;;;;;;19.67;13.73;;;;;;;11.84;100.00;98934.78;5112797;28;20321;-62
2022/10/03 00:03:18;;;;;;;21.60;13.87;;;;;;;11.87;100.00;98939.91;5113167;28;20640;-62
2022/10/03 00:05:53;;;;;;;20.53;13.87;;;;;;;11.90;100.00;98939.69;5111098;28;20231;-62
2022/10/03 00:08:36;;;;;;;21.87;13.63;;;;;;;11.94;100.00;98938.56;5114596;28;20337;-62
2022/10/03 00:11:16;;;;;;;19.30;13.27;;;;;;;11.91;100.00;98949.34;5114745;28;20272;-63
2022/10/03 00:13:53;;;;;;;25.13;13.97;;;;;;;11.86;100.00;98954.09;5110948;28;20257;-63
2022/10/03 00:16:28;;;;;;;20.03;12.20;;;;;;;11.78;100.00;98957.19;5105941;28;20259;-62
2022/10/03 00:19:02;;;;;;;20.10;12.77;;;;;;;11.81;100.00;98964.94;5105887;28;20278;-62
2022/10/03 00:21:47;;;;;;;18.90;12.23;;;;;;;11.79;100.00;98964.19;5103999;28;20276;-62
2022/10/03 00:24:25;;;;;;;19.47;12.03;;;;;;;11.75;100.00;98959.19;5105700;28;20263;-62
2022/10/03 00:26:55;;;;;;;18.43;11.77;;;;;;;11.65;100.00;98965.97;5105549;28;20223;-62
2022/10/03 00:29:47;;;;;;;15.30;10.73;;;;;;;11.56;100.00;98972.63;5108794;28;20262;-62
2022/10/03 00:32:26;;;;;;;19.67;11.97;;;;;;;11.53;100.00;98978.13;5105762;28;20346;-62
2022/10/03 00:35:06;;;;;;;17.03;11.80;;;;;;;11.55;100.00;98970.09;5106286;28;20262;-63
2022/10/03 00:37:37;;;;;;;20.67;12.20;;;;;;;11.63;100.00;98983.75;5107920;28;20267;-62
2022/10/03 00:40:55;;;;;;;20.77;12.70;;;;;;;11.72;100.00;98983.19;5105306;28;20299;-62
2022/10/03 00:43:50;;;;;;;21.90;12.73;;;;;;;11.79;100.00;98984.56;5084289;28;20281;-63
2022/10/03 00:46:50;;;;;;;21.40;13.30;;;;;;;11.85;100.00;98990.31;5105174;28;20307;-63
2022/10/03 00:49:49;;;;;;;22.57;12.97;;;;;;;11.85;100.00;98992.97;5107064;28;20263;-62
2022/10/03 00:52:36;;;;;;;20.73;12.70;;;;;;;11.87;100.00;98998.16;5113991;28;20677;-62
2022/10/03 00:55:18;;;;;;;19.83;12.63;;;;;;;11.87;100.00;98992.88;5100674;28;20248;-62
2022/10/03 00:58:06;;;;;;;17.87;11.47;;;;;;;11.90;100.00;98987.38;5105012;28;20261;-63
2022/10/03 01:00:35;;;;;;;20.37;12.33;;;;;;;11.93;100.00;98987.22;5106700;28;20299;-62
2022/10/03 01:03:28;;;;;;;20.37;13.23;;;;;;;11.95;100.00;98986.16;5108510;28;20259;-62
2022/10/03 01:06:06;;;;;;;22.90;13.27;;;;;;;11.96;100.00;98981.69;5104893;28;20309;-63
2022/10/03 01:08:53;;;;;;;17.93;12.37;;;;;;;11.91;100.00;98978.47;5107028;28;20289;-63
2022/10/03 01:11:37;;;;;;;15.47;10.63;;;;;;;11.77;100.00;98991.72;5104699;28;20623;-63
2022/10/03 01:14:18;;;;;;;20.93;13.60;;;;;;;11.68;100.00;98987.00;5104488;28;20261;-63
2022/10/03 01:17:00;;;;;;;17.83;12.23;;;;;;;11.63;100.00;98981.13;5109620;28;20584;-64
2022/10/03 01:20:00;;;;;;;17.73;11.97;;;;;;;11.60;100.00;98983.94;5104359;28;20323;-63
2022/10/03 01:23:01;;;;;;;17.77;12.63;;;;;;;11.62;100.00;98982.06;5097732;28;20227;-64
2022/10/03 01:25:39;;;;;;;20.07;12.27;;;;;;;11.58;100.00;98985.78;5105424;28;20268;-64
2022/10/03 01:31:14;;;;;;;18.80;12.30;;;;;;;11.63;100.00;98995.19;5104454;28;20226;-64
2022/10/03 01:33:46;;;;;;;21.00;13.17;;;;;;;11.71;100.00;98984.16;5104261;28;20273;-62
2022/10/03 01:36:19;;;;;;;19.43;13.37;;;;;;;11.77;100.00;98991.72;5109241;28;20274;-62
2022/10/03 01:38:53;;;;;;;19.27;12.67;;;;;;;11.81;100.00;98990.59;5112260;28;20265;-62
2022/10/03 01:41:28;;;;;;;19.20;13.00;;;;;;;11.86;100.00;98993.81;5112945;28;20249;-64
2022/10/03 01:44:02;;;;;;;21.20;13.87;;;;;;;11.90;100.00;98985.59;5110169;28;20221;-63
2022/10/03 01:46:38;;;;;;;18.67;13.13;;;;;;;11.93;100.00;98998.63;5109189;28;20264;-63
2022/10/03 01:49:13;;;;;;;20.27;13.07;;;;;;;11.98;100.00;98995.72;5112695;28;20249;-63
2022/10/03 01:51:45;;;;;;;19.53;12.77;;;;;;;12.00;100.00;99004.44;5111046;28;20264;-63
2022/10/03 01:54:23;;;;;;;19.37;13.17;;;;;;;12.02;100.00;99007.81;5113644;28;20223;-64
2022/10/03 01:56:57;;;;;;;19.00;13.07;;;;;;;12.01;100.00;99016.72;5104461;28;20229;-64
2022/10/03 01:59:41;;;;;;;18.67;12.83;;;;;;;11.99;100.00;99021.28;5111915;28;20254;-64
2022/10/03 02:02:16;;;;;;;17.40;11.80;;;;;;;12.01;100.00;99022.88;5110094;28;20255;-63
2022/10/03 02:04:51;;;;;;;18.07;11.83;;;;;;;12.01;100.00;99028.19;5112579;28;20225;-64
2022/10/03 02:07:25;;;;;;;16.00;11.87;;;;;;;12.02;100.00;99029.88;5111780;28;20374;-63
2022/10/03 02:10:05;;;;;;;20.77;12.77;;;;;;;11.97;100.00;99026.66;5108720;28;20666;-65
2022/10/03 02:12:37;;;;;;;17.67;12.63;;;;;;;12.03;100.00;99028.94;5110598;28;20222;-63
2022/10/03 02:15:18;;;;;;;17.57;12.50;;;;;;;12.00;100.00;99036.22;5112257;28;20224;-63
2022/10/03 02:17:54;;;;;;;17.60;12.43;;;;;;;11.97;100.00;99037.25;5108674;28;20311;-63
2022/10/03 02:20:28;;;;;;;20.80;12.47;;;;;;;11.95;100.00;99038.28;5111277;28;20321;-63
2022/10/03 02:22:57;;;;;;;19.40;12.87;;;;;;;11.93;100.00;99037.53;5112226;28;20265;-63
2022/10/03 02:25:30;;;;;;;17.17;12.53;;;;;;;11.93;100.00;99040.19;5108381;28;20306;-63
2022/10/03 02:28:22;;;;;;;18.60;11.57;;;;;;;11.93;100.00;99029.59;5111598;28;20227;-63
2022/10/03 02:31:25;;;;;;;18.10;11.93;;;;;;;11.92;100.00;99035.84;5112032;28;20305;-63
2022/10/03 02:34:14;;;;;;;19.40;12.37;;;;;;;11.86;100.00;99036.22;5111608;28;20289;-63
2022/10/03 02:37:10;;;;;;;18.13;11.37;;;;;;;11.85;100.00;99042.41;5112027;28;20237;-63
2022/10/03 02:40:09;;;;;;;16.47;11.50;;;;;;;11.80;100.00;99036.56;5108743;28;20287;-63
2022/10/03 02:43:05;;;;;;;17.67;12.03;;;;;;;11.76;100.00;99032.41;5106927;28;20224;-63
2022/10/03 02:46:14;;;;;;;17.90;12.40;;;;;;;11.63;100.00;99032.25;5110397;28;20259;-63
2022/10/03 02:49:03;;;;;;;15.63;11.67;;;;;;;11.58;100.00;99034.34;5110379;28;20268;-63
2022/10/03 02:51:59;;;;;;;19.53;11.77;;;;;;;11.53;100.00;99030.22;5111101;28;20230;-63
2022/10/03 02:54:55;;;;;;;18.93;12.23;;;;;;;11.43;100.00;99031.72;5100305;28;20221;-64
2022/10/03 02:58:01;;;;;;;17.63;11.70;;;;;;;11.38;100.00;99028.47;5110585;28;20232;-63
2022/10/03 03:00:41;;;;;;;15.33;11.30;;;;;;;11.38;100.00;99036.41;5110305;28;20722;-63
2022/10/03 03:03:47;;;;;;;17.73;11.80;;;;;;;11.39;100.00;99022.25;5109386;28;20253;-63
2022/10/03 03:06:41;;;;;;;18.40;11.77;;;;;;;11.42;100.00;99027.34;5110757;28;20269;-63
2022/10/03 03:09:43;;;;;;;15.67;11.37;;;;;;;11.43;100.00;99024.59;5110142;28;20264;-63
2022/10/03 03:12:41;;;;;;;19.40;11.73;;;;;;;11.48;100.00;99024.34;5093469;28;20289;-63
2022/10/03 03:15:43;;;;;;;17.63;10.97;;;;;;;11.53;100.00;99024.91;5100088;28;20306;-63
2022/10/03 03:18:22;;;;;;;17.50;11.37;;;;;;;11.55;100.00;99023.06;5110146;28;20309;-63
2022/10/03 03:21:11;;;;;;;16.53;10.83;;;;;;;11.49;100.00;99021.59;5108821;28;20253;-63
2022/10/03 03:24:05;;;;;;;18.03;11.23;;;;;;;11.48;100.00;99019.91;5111498;28;20260;-63
2022/10/03 03:26:45;;;;;;;16.70;11.37;;;;;;;11.51;100.00;99026.81;5103853;28;20222;-63
2022/10/03 03:29:20;;;;;;;15.47;10.73;;;;;;;11.52;100.00;99023.22;5102596;28;20305;-64
2022/10/03 03:32:02;;;;;;;19.57;12.03;;;;;;;11.54;100.00;99016.91;5102751;28;20264;-64
2022/10/03 03:34:36;;;;;;;17.50;11.70;;;;;;;11.58;100.00;99025.50;5110025;28;20230;-63
2022/10/03 03:37:07;;;;;;;17.60;11.07;;;;;;;11.62;100.00;99024.44;5106521;28;20232;-63
2022/10/03 03:39:49;;;;;;;16.70;11.30;;;;;;;11.67;100.00;99027.66;5106448;28;20257;-63
2022/10/03 03:42:36;;;;;;;17.83;11.67;;;;;;;11.72;100.00;99030.84;5111469;28;20271;-63
2022/10/03 03:45:11;;;;;;;15.10;10.73;;;;;;;11.74;100.00;99035.13;5106421;28;20271;-63
2022/10/03 03:47:57;;;;;;;13.27;9.87;;;;;;;11.76;100.00;99025.31;5107474;28;20263;-63
2022/10/03 03:50:38;;;;;;;15.37;10.03;;;;;;;11.80;100.00;99031.28;5107979;28;20257;-63
2022/10/03 03:53:33;;;;;;;15.00;10.07;;;;;;;11.82;100.00;99038.19;5106367;28;20238;-63
2022/10/03 03:56:26;;;;;;;13.97;10.03;;;;;;;11.83;100.00;99039.88;5114770;28;20223;-65
2022/10/03 03:59:04;;;;;;;16.70;10.80;;;;;;;11.85;100.00;99043.28;5101481;28;20618;-63
2022/10/03 04:01:54;;;;;;;13.63;10.30;;;;;;;11.86;100.00;99045.00;5108120;28;20251;-63
2022/10/03 04:04:38;;;;;;;16.20;10.30;;;;;;;11.86;100.00;99049.44;5106131;28;20254;-63
2022/10/03 04:07:15;;;;;;;15.33;10.23;;;;;;;11.85;100.00;99050.38;5106066;28;20311;-63
2022/10/03 04:09:58;;;;;;;15.30;10.03;;;;;;;11.86;100.00;99050.28;5111158;28;20273;-63
2022/10/03 04:12:40;;;;;;;15.37;10.83;;;;;;;11.82;100.00;99050.56;5106112;28;20224;-65
2022/10/03 04:15:38;;;;;;;15.67;11.03;;;;;;;11.78;100.00;99043.75;5106604;28;20254;-63
2022/10/03 04:21:32;;;;;;;19.83;11.67;;;;;;;11.56;100.00;99051.22;5103178;28;20242;-64
2022/10/03 04:24:20;;;;;;;17.13;10.77;;;;;;;11.50;100.00;99062.19;5104529;28;20581;-64
2022/10/03 04:27:05;;;;;;;19.10;12.10;;;;;;;11.52;100.00;99052.34;5105737;28;20227;-63
2022/10/03 04:29:46;;;;;;;20.10;11.67;;;;;;;11.57;100.00;99053.75;5111013;28;20258;-64
2022/10/03 04:32:28;;;;;;;18.50;11.97;;;;;;;11.61;100.00;99046.56;5114516;28;20221;-64
2022/10/03 04:35:14;;;;;;;18.83;12.30;;;;;;;11.59;100.00;99061.66;5112523;28;20265;-64
2022/10/03 04:37:48;;;;;;;18.20;12.13;;;;;;;11.56;100.00;99056.53;5110617;28;20262;-64
2022/10/03 04:40:32;;;;;;;18.97;12.50;;;;;;;11.56;100.00;99059.19;5107397;28;20244;-64
2022/10/03 04:43:09;;;;;;;20.97;12.03;;;;;;;11.55;100.00;99060.13;5109874;28;20218;-64
2022/10/03 04:45:57;;;;;;;18.17;12.10;;;;;;;11.55;100.00;99062.78;5113544;28;20304;-64
2022/10/03 04:48:33;;;;;;;17.80;11.40;;;;;;;11.55;100.00;99057.47;5112294;28;20272;-64
2022/10/03 04:51:07;;;;;;;17.00;11.67;;;;;;;11.52;100.00;99060.28;5110300;28;20315;-64
2022/10/03 04:53:49;;;;;;;19.23;12.20;;;;;;;11.52;100.00;99070.88;5105275;28;20272;-64
2022/10/03 04:56:34;;;;;;;19.17;12.37;;;;;;;11.48;100.00;99066.69;5103744;28;20306;-64
2022/10/03 04:59:08;;;;;;;19.30;12.97;;;;;;;11.46;100.00;99060.63;5110209;28;20262;-65
2022/10/03 05:01:50;;;;;;;18.10;12.10;;;;;;;11.47;100.00;99067.63;5113819;28;20618;-64
2022/10/03 05:04:26;;;;;;;18.90;12.77;;;;;;;11.49;100.00;99068.41;5113104;28;20260;-65
2022/10/03 05:07:05;;;;;;;18.80;12.37;;;;;;;11.51;100.00;99069.19;5110055;28;20649;-64
2022/10/03 05:09:40;;;;;;;26.40;13.83;;;;;;;11.51;100.00;99070.03;5113720;28;20290;-64
2022/10/03 05:12:15;;;;;;;18.53;12.00;;;;;;;11.61;100.00;99080.97;5118066;28;20586;-64
2022/10/03 05:14:58;;;;;;;16.90;11.47;;;;;;;11.60;100.00;99073.94;5108114;28;20226;-64
2022/10/03 05:17:36;;;;;;;21.33;12.60;;;;;;;11.61;100.00;99080.97;5104770;28;20649;-64
2022/10/03 05:20:24;;;;;;;17.53;11.53;;;;;;;11.62;100.00;99082.69;5105335;28;20236;-65
2022/10/03 05:23:00;;;;;;;20.27;12.67;;;;;;;11.62;100.00;99082.69;5106247;28;20223;-65
2022/10/03 05:25:41;;;;;;;20.97;13.30;;;;;;;11.62;100.00;99082.69;5104576;28;20255;-65
2022/10/03 05:28:22;;;;;;;23.23;12.93;;;;;;;11.66;100.00;99084.19;5107239;28;20262;-65
2022/10/03 05:30:53;;;;;;;23.40;13.70;;;;;;;11.67;100.00;99091.22;5105280;28;20322;-65
2022/10/03 05:33:34;;;;;;;18.73;13.20;;;;;;;11.67;100.00;99092.06;5104391;28;20225;-65
2022/10/03 05:36:15;;;;;;;23.97;13.73;;;;;;;11.70;100.00;99096.31;5107208;28;20274;-65
2022/10/03 05:39:20;;;;;;;22.93;13.70;;;;;;;11.70;100.00;99106.91;5104789;28;20269;-65
2022/10/03 05:41:53;;;;;;;19.17;13.07;;;;;;;11.65;100.00;99106.31;5104209;28;20285;-65
2022/10/03 05:44:29;;;;;;;23.07;14.47;;;;;;;11.64;100.00;99112.56;5106956;28;20507;-65
2022/10/03 05:47:04;;;;;;;19.57;13.77;;;;;;;11.58;100.00;99118.19;5104025;28;20265;-65
2022/10/03 05:49:48;;;;;;;20.60;13.47;;;;;;;11.56;100.00;99130.66;5104696;28;20678;-65
2022/10/03 05:52:38;;;;;;;18.77;13.60;;;;;;;11.45;100.00;99130.41;5106330;28;20299;-65
2022/10/03 05:55:15;;;;;;;30.30;14.73;;;;;;;11.33;100.00;99121.38;5108330;28;20298;-65
2022/10/03 05:58:24;;;;;;;20.67;14.30;;;;;;;11.32;100.00;99129.41;5109349;28;20265;-65
2022/10/03 06:01:21;;;;;;;20.53;13.47;;;;;;;11.30;100.00;99139.19;5069871;28;20243;-65
2022/10/03 06:04:14;;;;;;;19.53;13.37;;;;;;;11.32;100.00;99143.47;5107517;28;20224;-64
2022/10/03 06:07:04;;;;;;;21.20;14.17;;;;;;;11.34;100.00;99141.63;5100022;28;20229;-65
2022/10/03 06:10:01;;;;;;;21.83;13.33;;;;;;;11.43;100.00;99140.25;5105649;28;20537;-65
2022/10/03 06:12:37;;;;;;;19.20;12.87;;;;;;;11.43;100.00;99130.50;5102407;28;20484;-64
2022/10/03 06:15:32;;;;;;;16.97;12.50;;;;;;;11.38;100.00;99137.84;5102666;28;20635;-65
2022/10/03 06:18:09;;;;;;;19.17;13.70;;;;;;;11.30;100.00;99139.19;5103208;28;20261;-66
2022/10/03 06:21:09;;;;;;;21.80;13.73;;;;;;;11.30;100.00;99139.19;5101907;28;20625;-66
2022/10/03 06:24:04;;;;;;;20.67;12.50;;;;;;;11.31;100.00;99143.59;5107660;28;20597;-65
2022/10/03 06:27:03;;;;;;;17.93;12.07;;;;;;;11.38;100.00;99153.72;5113591;28;20383;-65
2022/10/03 06:30:10;;;;;;;16.63;12.43;;;;;;;11.43;100.00;99154.31;5107287;28;20272;-65
2022/10/03 06:33:14;;;;;;;18.90;12.57;;;;;;;11.48;100.00;99148.75;5108943;28;20486;-66
2022/10/03 06:36:10;;;;;;;17.10;12.00;;;;;;;11.60;100.00;99156.03;5109375;28;20228;-66
2022/10/03 06:39:09;;;;;;;17.50;12.53;;;;;;;11.57;100.00;99162.31;5110350;28;20226;-66
2022/10/03 06:42:11;;;;;;;20.00;12.30;;;;;;;11.66;100.00;99172.44;5109715;28;20277;-65
2022/10/03 06:45:11;;;;;;;18.30;12.80;;;;;;;11.73;100.00;99170.31;5109526;28;20575;-66
2022/10/03 06:47:53;;;;;;;17.80;12.07;;;;;;;11.71;100.00;99172.16;5101701;28;20438;-67
2022/10/03 06:50:35;;;;;;;16.27;10.80;;;;;;;11.60;100.00;99183.38;5101501;28;20262;-67
2022/10/03 06:53:35;;;;;;;18.50;11.20;;;;;;;11.60;100.00;99190.47;5106492;28;20264;-65
2022/10/03 06:56:39;;;;;;;17.90;11.67;;;;;;;11.63;100.00;99190.31;5098995;28;20548;-65
2022/10/03 06:59:46;;;;;;;15.43;11.60;;;;;;;11.63;100.00;99185.84;5105969;28;20229;-66
2022/10/03 07:02:36;;;;;;;14.57;10.80;;;;;;;11.64;100.00;99197.31;5109995;28;20613;-66
2022/10/03 07:05:41;;;;;;;15.80;10.90;;;;;;;11.73;100.00;99192.34;5107940;28;20263;-67
2022/10/03 07:09:01;;;;;;;17.20;10.03;;;;;;;11.73;100.00;99199.44;5109892;28;20617;-66
2022/10/03 07:11:58;;;;;;;13.87;9.97;;;;;;;11.69;100.00;99205.84;5107380;28;20222;-65
2022/10/03 07:14:51;;;;;;;13.53;10.07;;;;;;;11.76;100.00;99201.91;5106673;28;21113;-65
2022/10/03 07:17:35;;;;;;;16.23;9.70;;;;;;;11.75;100.00;99211.63;5101213;28;20279;-65
2022/10/03 07:20:32;;;;;;;13.17;9.30;;;;;;;11.92;100.00;99213.34;5102070;28;20227;-65
2022/10/03 07:23:39;;;;;;;14.20;9.27;;;;;;;11.99;100.00;99220.00;5101405;28;20262;-65
2022/10/03 07:26:53;;;;;;;14.63;9.13;;;;;;;12.15;100.00;99207.53;5096668;28;20258;-66
2022/10/03 07:29:31;;;;;;;13.47;9.63;;;;;;;12.36;100.00;99214.25;5101221;28;20220;-67
2022/10/03 07:32:20;;;;;;;15.87;9.90;;;;;;;12.51;100.00;99219.47;5103246;28;20220;-67
2022/10/03 07:35:21;;;;;;;12.77;9.27;;;;;;;12.52;100.00;99215.00;5101298;28;20271;-66
2022/10/03 07:41:20;;;;;;;14.60;8.47;;;;;;;12.63;100.00;99220.53;5106650;28;20262;-66
2022/10/03 07:44:08;;;;;;;13.67;9.23;;;;;;;12.61;100.00;99225.09;5107745;28;20524;-67
2022/10/03 07:47:09;;;;;;;15.20;8.77;;;;;;;12.54;100.00;99239.66;5109741;28;20237;-66
2022/10/03 07:50:05;;;;;;;10.17;8.00;;;;;;;12.46;100.00;99226.03;5108226;28;20225;-67
2022/10/03 07:53:01;;;;;;;9.50;7.50;;;;;;;12.44;100.00;99227.88;5086920;28;20230;-67
2022/10/03 07:55:41;;;;;;;10.83;8.00;;;;;;;12.45;100.00;99235.75;5107895;28;20256;-66
2022/10/03 07:58:28;;;;;;;12.53;7.40;;;;;;;12.42;100.00;99235.09;5104746;28;20265;-66
2022/10/03 08:01:10;;;;;;;11.73;8.57;;;;;;;12.39;100.00;99240.56;5108649;28;20281;-64
2022/10/03 08:04:02;;;;;;;11.13;8.33;;;;;;;12.35;100.00;99231.94;5105904;28;20290;-64
2022/10/03 08:06:41;;;;;;;14.73;9.40;;;;;;;12.42;100.00;99240.41;5100926;28;20269;-65
2022/10/03 08:09:36;;;;;;;12.27;8.23;;;;;;;12.41;100.00;99238.69;5101373;28;20636;-65
2022/10/03 08:12:40;;;;;;;11.00;7.37;;;;;;;12.43;100.00;99242.97;5101871;28;20353;-65
2022/10/03 08:15:13;;;;;;;12.20;8.53;;;;;;;12.47;100.00;99241.81;5102057;28;20526;-65
2022/10/03 08:18:21;;;;;;;10.73;8.57;;;;;;;12.42;100.00;99256.31;5104254;28;20284;-65
2022/10/03 08:20:54;;;;;;;10.97;7.70;;;;;;;12.39;100.00;99246.72;5104196;28;20260;-65
2022/10/03 08:24:08;;;;;;;10.50;7.80;;;;;;;12.50;100.00;99248.75;5109545;28;20224;-65
2022/10/03 08:27:08;;;;;;;12.57;8.03;;;;;;;12.57;100.00;99239.47;5104353;28;20271;-65
2022/10/03 08:30:02;;;;;;;11.77;8.13;;;;;;;12.70;100.00;99249.25;5078963;28;20264;-64
2022/10/03 08:32:58;;;;;;;11.50;7.40;;;;;;;12.77;100.00;99242.63;5113173;28;20711;-64
2022/10/03 08:36:00;;;;;;;10.40;6.80;;;;;;;12.84;100.00;99246.63;5110125;28;20544;-65
2022/10/03 08:38:52;;;;;;;8.37;6.70;;;;;;;12.90;100.00;99248.91;5084475;28;20268;-68
2022/10/03 08:41:54;;;;;;;6.73;6.00;;;;;;;12.83;100.00;99246.72;5110018;28;20252;-65
2022/10/03 08:44:52;;;;;;;11.40;6.97;;;;;;;12.87;100.00;99242.94;5112903;28;20263;-64
2022/10/03 08:47:42;;;;;;;8.07;5.80;;;;;;;12.88;100.00;99249.94;5110577;28;20286;-65
2022/10/03 08:50:31;;;;;;;9.30;5.63;;;;;;;13.00;100.00;99254.53;5112753;28;20264;-65
2022/10/03 08:53:40;;;;;;;9.77;6.53;;;;;;;13.10;100.00;99250.38;5108883;28;20310;-66
2022/10/03 08:56:10;;;;;;;10.93;5.83;;;;;;;13.20;100.00;99256.84;5040903;28;20270;-66
2022/10/03 08:59:14;;;;;;;8.33;5.77;;;;;;;13.29;100.00;99254.47;5098768;28;20307;-68
2022/10/03 09:02:22;;;;;;;8.37;6.13;;;;;;;13.40;100.00;99259.09;5103700;28;20535;-65
2022/10/03 09:05:16;;;;;;;11.10;6.97;;;;;;;13.52;100.00;99251.19;5067103;28;20268;-65
2022/10/03 09:08:22;;;;;;;10.33;6.00;;;;;;;13.64;100.00;99247.75;5103433;28;20280;-65
2022/10/03 09:11:31;;;;;;;7.57;5.37;;;;;;;13.91;100.00;99245.13;5088345;28;20603;-65
2022/10/03 09:14:37;;;;;;;8.37;6.33;;;;;;;14.22;100.00;99245.72;5112415;28;20716;-65
2022/10/03 09:17:30;;;;;;;9.23;6.50;;;;;;;14.45;100.00;99241.50;5112313;28;20229;-65
2022/10/03 09:20:16;;;;;;;8.80;6.37;;;;;;;14.54;100.00;99246.22;5111519;28;20270;-65
2022/10/03 09:23:14;;;;;;;10.53;5.67;;;;;;;14.57;100.00;99241.56;5109867;28;20242;-65
2022/10/03 09:26:08;;;;;;;11.00;5.70;;;;;;;14.62;100.00;99243.88;5082213;28;20257;-66
2022/10/03 09:29:05;;;;;;;7.23;5.53;;;;;;;14.72;100.00;99250.31;5109051;28;20253;-66
2022/10/03 09:32:02;;;;;;;8.60;5.83;;;;;;;14.81;100.00;99247.00;5108791;28;20656;-66
2022/10/03 09:34:54;;;;;;;7.67;5.20;;;;;;;14.83;100.00;99245.06;5109410;28;20270;-65
2022/10/03 09:37:42;;;;;;;6.23;5.10;;;;;;;14.81;99.72;99241.69;5111784;28;20228;-65
2022/10/03 09:40:44;;;;;;;10.10;5.50;;;;;;;14.74;95.88;99237.72;5106932;28;20262;-65
2022/10/03 09:43:44;;;;;;;7.73;5.30;;;;;;;14.61;96.06;99236.88;5102872;28;20277;-66
2022/10/03 09:50:18;;;;;;;7.90;5.97;;;;;;;14.68;98.53;99238.16;5109083;28;20300;-66
2022/10/03 09:53:14;;;;;;;6.73;5.50;;;;;;;14.71;98.10;99232.59;5102644;28;20224;-66
2022/10/03 09:56:04;;;;;;;9.63;5.53;;;;;;;14.84;98.52;99234.31;5109921;28;20249;-66
2022/10/03 09:59:07;;;;;;;8.80;5.20;;;;;;;15.08;96.23;99237.09;5102388;28;20258;-66
2022/10/03 10:01:42;;;;;;;6.83;5.30;;;;;;;15.12;94.63;99243.91;5105777;28;20353;-65
2022/10/03 10:04:40;;;;;;;9.10;5.63;;;;;;;14.95;93.26;99242.44;5103520;28;20260;-66
2022/10/03 10:07:36;;;;;;;9.73;6.03;;;;;;;14.76;94.21;99241.13;5101810;28;20287;-66
2022/10/03 10:10:39;;;;;;;8.30;5.57;;;;;;;14.61;96.51;99244.84;5096592;28;20279;-66
2022/10/03 10:13:18;;;;;;;9.00;6.03;;;;;;;14.62;97.08;99238.56;5103172;28;20329;-66
2022/10/03 10:16:13;;;;;;;12.20;6.70;;;;;;;14.62;96.87;99239.44;5104916;28;20256;-66
2022/10/03 10:19:07;;;;;;;9.97;6.47;;;;;;;14.65;96.69;99249.00;5102315;28;20595;-65
2022/10/03 10:21:55;;;;;;;8.13;5.63;;;;;;;14.92;97.85;99252.44;5107478;28;20278;-66
2022/10/03 10:24:52;;;;;;;9.70;6.03;;;;;;;15.09;94.44;99255.63;5110852;28;20625;-65
2022/10/03 10:27:54;;;;;;;8.13;5.77;;;;;;;15.04;94.07;99256.91;5106968;28;20265;-66
2022/10/03 10:30:31;;;;;;;13.00;5.90;;;;;;;14.86;92.32;99258.19;5102034;28;20252;-67
2022/10/03 10:33:39;;;;;;;10.90;5.50;;;;;;;14.72;93.23;99261.78;5103006;28;20545;-66
2022/10/03 10:36:38;;;;;;;10.37;5.87;;;;;;;14.57;92.66;99267.28;5102108;28;20261;-66
2022/10/03 10:39:39;;;;;;;9.37;6.00;;;;;;;14.50;94.79;99266.00;5078062;28;20257;-66
2022/10/03 10:42:53;;;;;;;8.97;6.43;;;;;;;14.45;97.89;99262.78;5100806;28;20517;-66
2022/10/03 10:45:44;;;;;;;9.07;6.27;;;;;;;14.41;95.37;99266.59;5086302;28;20600;-66
2022/10/03 10:48:55;;;;;;;10.63;6.00;;;;;;;14.37;95.21;99262.47;5101808;28;20227;-66
2022/10/03 10:51:51;;;;;;;10.40;5.60;;;;;;;14.35;94.98;99256.41;5088893;28;20264;-66
2022/10/03 10:55:02;;;;;;;8.83;5.37;;;;;;;14.39;95.10;99258.75;5106186;28;20313;-66
2022/10/03 10:58:10;;;;;;;9.40;5.90;;;;;;;14.59;96.11;99255.59;5102317;28;20500;-66
2022/10/03 11:01:01;;;;;;;10.20;5.63;;;;;;;14.63;93.92;99253.56;5104487;28;20257;-67
2022/10/03 11:04:19;;;;;;;9.73;5.30;;;;;;;14.51;94.73;99259.72;5102633;28;20286;-67
2022/10/03 11:07:20;;;;;;;8.27;5.10;;;;;;;14.47;96.34;99258.22;5051020;28;20267;-66
2022/10/03 11:10:14;;;;;;;7.30;5.47;;;;;;;14.35;96.33;99245.75;5102367;28;20224;-66
2022/10/03 11:13:36;;;;;;;7.40;4.60;;;;;;;14.27;95.02;99243.59;5107899;28;20264;-66
2022/10/03 11:16:52;;;;;;;8.10;4.23;;;;;;;14.32;90.38;99232.66;5034144;28;20528;-66
2022/10/03 11:19:56;;;;;;;9.53;3.80;;;;;;;14.47;90.01;99236.94;5026547;28;20221;-66
2022/10/03 11:22:56;;;;;;;10.57;4.60;;;;;;;14.64;92.02;99234.00;5111850;28;20273;-65
2022/10/03 11:26:13;;;;;;;8.90;4.30;;;;;;;14.57;87.97;99225.59;5104542;28;20645;-66
2022/10/03 11:29:21;;;;;;;6.07;4.50;;;;;;;14.44;93.11;99229.16;5109495;28;20261;-66
2022/10/03 11:32:13;;;;;;;6.87;4.33;;;;;;;14.56;94.38;99226.53;5050089;28;20257;-65
2022/10/03 11:35:17;;;;;;;6.03;3.73;;;;;;;14.65;88.04;99233.88;5109888;28;20482;-66
2022/10/03 11:37:46;;;;;;;5.37;4.10;;;;;;;14.68;85.26;99232.84;5108412;28;20272;-66
2022/10/03 11:40:31;;;;;;;5.70;3.90;;;;;;;14.76;82.11;99228.69;5106272;28;20310;-67
2022/10/03 11:43:18;;;;;;;7.47;4.00;;;;;;;14.78;82.92;99231.25;5109867;28;20539;-67
2022/10/03 11:45:50;;;;;;;5.30;3.50;;;;;;;14.98;82.02;99230.72;5106820;28;20271;-67
2022/10/03 11:48:37;;;;;;;7.17;4.17;;;;;;;15.22;80.56;99227.16;5107186;28;20526;-67
2022/10/03 11:51:09;;;;;;;3.90;3.50;;;;;;;15.50;79.76;99223.44;5109957;28;20304;-67
2022/10/03 11:53:43;;;;;;;6.97;4.10;;;;;;;15.72;80.40;99223.59;5108615;28;20226;-67
2022/10/03 11:56:32;;;;;;;4.73;3.97;;;;;;;15.98;81.16;99220.72;5102895;28;20263;-67
2022/10/03 11:59:29;;;;;;;4.57;3.33;;;;;;;16.25;79.03;99224.88;5113763;28;20238;-67
2022/10/03 12:02:13;;;;;;;5.70;3.07;;;;;;;16.46;75.35;99204.59;5110822;28;20224;-67
2022/10/03 12:04:54;;;;;;;7.90;3.80;;;;;;;16.77;74.74;99211.94;5113789;28;20534;-67
2022/10/03 12:10:38;;;;;;;6.20;3.20;;;;;;;17.12;70.16;99212.72;5104720;28;20518;-67
2022/10/03 12:13:13;;;;;;;5.43;3.10;;;;;;;16.91;71.55;99214.41;5105804;28;20217;-67
2022/10/03 12:15:45;;;;;;;6.00;2.90;;;;;;;16.53;69.86;99211.16;5107540;28;20224;-66
2022/10/03 12:18:19;;;;;;;5.63;3.10;;;;;;;16.19;71.09;99213.78;5104531;28;20229;-67
2022/10/03 12:21:03;;;;;;;4.23;2.90;;;;;;;15.94;73.88;99207.75;5102745;28;20595;-67
2022/10/03 12:23:51;;;;;;;5.63;3.30;;;;;;;15.91;76.23;99207.94;5109695;28;20279;-67
2022/10/03 12:26:28;;;;;;;5.67;3.03;;;;;;;15.91;77.87;99207.94;5113191;28;20223;-67
2022/10/03 12:28:56;;;;;;;7.83;3.10;;;;;;;15.88;74.65;99197.53;5111083;28;20228;-66
2022/10/03 12:31:29;;;;;;;6.63;2.90;;;;;;;15.86;76.43;99197.63;5109947;28;20266;-67
2022/10/03 12:34:01;;;;;;;5.97;2.83;;;;;;;15.98;76.40;99187.88;5113183;28;20331;-67
2022/10/03 12:36:38;;;;;;;4.53;2.40;;;;;;;15.94;72.59;99186.41;5112963;28;20270;-67
2022/10/03 12:39:22;;;;;;;3.13;2.50;;;;;;;15.86;70.53;99188.78;5109178;28;20313;-67
2022/10/03 12:42:18;;;;;;;6.33;2.97;;;;;;;15.83;70.38;99189.00;5113210;28;20626;-68
2022/10/03 12:44:51;;;;;;;3.97;2.43;;;;;;;15.81;70.27;99193.59;5109573;28;20771;-67
2022/10/03 12:47:29;;;;;;;5.33;3.03;;;;;;;15.94;71.19;99195.25;5109270;28;20606;-67
2022/10/03 12:50:06;;;;;;;4.07;2.90;;;;;;;16.15;74.82;99191.81;5112713;28;20259;-67
2022/10/03 12:52:39;;;;;;;5.97;2.87;;;;;;;16.37;73.45;99178.59;5110398;28;20301;-67
2022/10/03 12:55:23;;;;;;;4.93;2.80;;;;;;;16.57;73.02;99180.59;5103394;28;20263;-67
2022/10/03 12:57:56;;;;;;;4.00;2.40;;;;;;;16.51;70.98;99172.22;5103722;28;20286;-67
2022/10/03 13:00:27;;;;;;;4.93;2.73;;;;;;;16.22;70.03;99170.88;5105690;28;20257;-68
2022/10/03 13:03:24;;;;;;;5.33;2.70;;;;;;;15.80;69.23;99173.22;5106560;28;20282;-66
2022/10/03 13:06:20;;;;;;;6.33;2.87;;;;;;;15.40;73.47;99177.94;5081969;28;20223;-66
2022/10/03 13:09:03;;;;;;;3.67;2.60;;;;;;;15.04;76.56;99177.03;5105320;28;20284;-67